Time;durP1;ratioP1;P1;durP2;ratioP2;P2;SDS_P1;SDS_P2;PMS_P1;PMS_P2;Temp;Humidity;BMP_temperature;BMP_pressure;BME280_temperature;BME280_humidity;BME280_pressure;Samples;Min_cycle;Max_cycle;Signal;HPM_P1;HPM_P2
2023/06/17 00:00:09;;;;;;;18.00;14.48;;;15.00;99.90;;;;;;5077966;28;20044;-51
2023/06/17 00:02:36;;;;;;;20.23;14.95;;;14.90;99.90;;;;;;5081178;28;20020;-52
2023/06/17 00:05:02;;;;;;;20.67;14.80;;;14.90;99.90;;;;;;5074929;28;20028;-51
2023/06/17 00:07:29;;;;;;;19.30;16.08;;;14.90;99.90;;;;;;5071030;28;20035;-51
2023/06/17 00:09:55;;;;;;;17.42;15.20;;;15.00;99.90;;;;;;5081622;28;20093;-51
2023/06/17 00:12:22;;;;;;;21.45;16.45;;;15.00;99.90;;;;;;5071928;28;20021;-51
2023/06/17 00:14:51;;;;;;;23.08;17.98;;;15.00;99.90;;;;;;5074830;28;20450;-51
2023/06/17 00:17:17;;;;;;;21.30;16.58;;;15.00;99.90;;;;;;5087824;28;20034;-53
2023/06/17 00:19:45;;;;;;;21.35;17.38;;;15.10;99.90;;;;;;5089659;28;20032;-53
2023/06/17 00:22:11;;;;;;;18.70;16.70;;;15.00;99.90;;;;;;5080824;28;20036;-51
2023/06/17 00:24:37;;;;;;;18.60;15.68;;;15.00;99.90;;;;;;5075954;28;20044;-52
2023/06/17 00:27:06;;;;;;;17.70;15.13;;;15.00;99.90;;;;;;5067632;28;20063;-51
2023/06/17 00:29:34;;;;;;;18.92;16.90;;;15.10;99.90;;;;;;5079892;28;20131;-51
2023/06/17 00:32:01;;;;;;;21.30;17.30;;;15.00;99.90;;;;;;5082823;28;20024;-51
2023/06/17 00:34:30;;;;;;;22.88;17.58;;;15.00;99.90;;;;;;5077203;28;20021;-53
2023/06/17 00:36:56;;;;;;;18.25;16.25;;;15.00;99.90;;;;;;5074128;28;20016;-51
2023/06/17 00:39:25;;;;;;;26.67;18.10;;;15.00;99.90;;;;;;5069497;28;20017;-51
2023/06/17 00:41:54;;;;;;;23.77;17.08;;;15.00;99.90;;;;;;5068739;28;20069;-53
2023/06/17 00:44:22;;;;;;;21.27;16.10;;;15.00;99.90;;;;;;5066109;28;20032;-50
2023/06/17 00:46:53;;;;;;;24.90;19.73;;;15.00;99.90;;;;;;5067822;28;20425;-50
2023/06/17 00:49:23;;;;;;;23.75;18.92;;;15.00;99.90;;;;;;5068862;28;20541;-50
2023/06/17 00:51:51;;;;;;;20.47;17.90;;;15.00;99.90;;;;;;5068712;28;20386;-51
2023/06/17 00:54:18;;;;;;;25.20;20.40;;;15.00;99.90;;;;;;5075796;28;20486;-52
2023/06/17 00:56:44;;;;;;;26.27;19.75;;;15.10;99.90;;;;;;5068271;28;20021;-52
2023/06/17 00:59:10;;;;;;;23.92;18.77;;;15.10;99.90;;;;;;5076273;28;20492;-52
2023/06/17 01:01:36;;;;;;;20.45;17.45;;;15.10;99.90;;;;;;5088459;28;20057;-51
2023/06/17 01:04:04;;;;;;;23.92;18.55;;;15.10;99.90;;;;;;5074607;28;20013;-52
2023/06/17 01:06:55;;;;;;;24.83;18.92;;;15.10;99.90;;;;;;5067601;28;20497;-52
2023/06/17 01:09:27;;;;;;;21.55;17.80;;;15.10;99.90;;;;;;5067268;28;20110;-51
2023/06/17 01:11:56;;;;;;;23.05;19.70;;;15.10;99.90;;;;;;5068470;28;20431;-51
2023/06/17 01:14:22;;;;;;;22.83;17.92;;;15.20;99.90;;;;;;5068217;28;20020;-51
2023/06/17 01:16:51;;;;;;;24.08;19.88;;;15.10;99.90;;;;;;5066552;28;20228;-52
2023/06/17 01:19:23;;;;;;;24.10;19.95;;;15.10;99.90;;;;;;5068856;28;20017;-52
2023/06/17 01:21:48;;;;;;;29.83;20.95;;;15.10;99.90;;;;;;5064413;28;20060;-53
2023/06/17 01:24:28;;;;;;;20.98;18.70;;;15.10;99.90;;;;;;5063857;28;20044;-51
2023/06/17 01:26:59;;;;;;;24.60;20.42;;;15.10;99.90;;;;;;5067741;28;20017;-52
2023/06/17 01:29:36;;;;;;;23.70;19.83;;;15.10;99.90;;;;;;5066132;28;20024;-51
2023/06/17 01:32:05;;;;;;;23.48;19.40;;;15.00;99.90;;;;;;5068137;28;20516;-51
2023/06/17 01:34:37;;;;;;;21.27;18.25;;;15.00;99.90;;;;;;5067528;28;20557;-52
2023/06/17 01:37:06;;;;;;;26.70;19.15;;;15.00;99.90;;;;;;5066881;28;20028;-51
2023/06/17 01:39:34;;;;;;;32.40;20.60;;;14.90;99.90;;;;;;5067700;28;20017;-52
2023/06/17 01:42:00;;;;;;;27.70;19.55;;;14.90;99.90;;;;;;5066022;28;20504;-52
2023/06/17 01:44:27;;;;;;;29.77;22.20;;;14.90;99.90;;;;;;5067834;28;20024;-51
2023/06/17 01:46:53;;;;;;;24.52;20.35;;;14.90;99.90;;;;;;5067364;28;20020;-51
2023/06/17 01:49:18;;;;;;;38.38;21.75;;;14.80;99.90;;;;;;5068262;28;20087;-52
2023/06/17 01:51:44;;;;;;;26.33;20.83;;;14.80;99.90;;;;;;5070222;28;20363;-51
2023/06/17 01:54:10;;;;;;;22.73;19.90;;;14.80;99.90;;;;;;5072140;28;20025;-52
2023/06/17 01:56:36;;;;;;;29.83;22.77;;;14.80;99.90;;;;;;5067007;28;20433;-53
2023/06/17 01:59:02;;;;;;;27.42;22.52;;;14.70;99.90;;;;;;5072546;28;20361;-52
2023/06/17 02:01:27;;;;;;;28.23;22.27;;;14.70;99.90;;;;;;5079372;28;20055;-52
2023/06/17 02:03:53;;;;;;;28.55;22.13;;;14.60;99.90;;;;;;5087896;28;20024;-51
2023/06/17 02:06:19;;;;;;;28.52;22.60;;;14.60;99.90;;;;;;5078590;28;20024;-52
2023/06/17 02:08:45;;;;;;;29.02;23.40;;;14.60;99.90;;;;;;5067963;28;20035;-52
2023/06/17 02:11:10;;;;;;;30.50;23.52;;;14.60;99.90;;;;;;5075288;28;20039;-52
2023/06/17 02:13:36;;;;;;;30.42;22.85;;;14.60;99.90;;;;;;5087752;28;20024;-51
2023/06/17 02:16:02;;;;;;;28.95;21.73;;;14.60;99.90;;;;;;5085954;28;20020;-52
2023/06/17 02:18:27;;;;;;;28.95;22.50;;;14.60;99.90;;;;;;5087414;28;20208;-52
2023/06/17 02:20:53;;;;;;;29.00;23.08;;;14.60;99.90;;;;;;5082618;28;20012;-52
2023/06/17 02:23:19;;;;;;;31.00;23.90;;;14.60;99.90;;;;;;5067057;28;20268;-52
2023/06/17 02:25:45;;;;;;;31.48;23.65;;;14.50;99.90;;;;;;5076002;28;20020;-52
2023/06/17 02:28:10;;;;;;;33.53;25.17;;;14.50;99.90;;;;;;5067653;28;20513;-51
2023/06/17 02:30:36;;;;;;;27.85;21.38;;;14.50;99.90;;;;;;5086439;28;20024;-50
2023/06/17 02:33:01;;;;;;;28.08;22.55;;;14.50;99.90;;;;;;5079420;28;20464;-49
2023/06/17 02:35:27;;;;;;;26.65;22.95;;;14.50;99.90;;;;;;5069848;28;20044;-50
2023/06/17 02:37:54;;;;;;;31.38;25.90;;;14.50;99.90;;;;;;5066963;28;20020;-51
2023/06/17 02:40:20;;;;;;;34.25;27.08;;;14.50;99.90;;;;;;5075642;28;20059;-50
2023/06/17 02:42:45;;;;;;;31.38;25.77;;;14.40;99.90;;;;;;5071472;28;20051;-50
2023/06/17 02:45:12;;;;;;;29.77;24.80;;;14.40;99.90;;;;;;5072143;28;20088;-52
2023/06/17 02:47:38;;;;;;;34.03;27.73;;;14.40;99.90;;;;;;5082503;28;20016;-51
2023/06/17 02:50:05;;;;;;;35.97;27.52;;;14.40;99.90;;;;;;5067648;28;20331;-50
2023/06/17 02:52:34;;;;;;;30.75;24.85;;;14.40;99.90;;;;;;5067081;28;20013;-50
2023/06/17 02:54:59;;;;;;;30.63;24.17;;;14.40;99.90;;;;;;5069855;28;20012;-50
2023/06/17 02:57:25;;;;;;;34.58;27.48;;;14.30;99.90;;;;;;5070271;28;20303;-51
2023/06/17 02:59:51;;;;;;;37.55;27.90;;;14.30;99.90;;;;;;5083626;28;20277;-51
2023/06/17 03:02:16;;;;;;;34.90;26.95;;;14.30;99.90;;;;;;5081819;28;20154;-51
2023/06/17 03:04:43;;;;;;;35.90;27.55;;;14.30;99.90;;;;;;5070754;28;20090;-49
2023/06/17 03:07:11;;;;;;;37.97;27.98;;;14.30;99.90;;;;;;5069588;28;20117;-51
2023/06/17 03:09:37;;;;;;;35.50;26.77;;;14.20;99.90;;;;;;5070503;28;20029;-50
2023/06/17 03:12:03;;;;;;;36.65;29.33;;;14.20;99.90;;;;;;5078995;28;20024;-51
2023/06/17 03:14:29;;;;;;;42.72;30.10;;;14.20;99.90;;;;;;5070517;28;20027;-51
2023/06/17 03:16:59;;;;;;;42.03;31.98;;;14.20;99.90;;;;;;5086049;28;20021;-47
2023/06/17 03:19:25;;;;;;;45.03;32.10;;;14.30;99.90;;;;;;5070766;28;20450;-49
2023/06/17 03:21:51;;;;;;;46.97;33.55;;;14.30;99.90;;;;;;5070040;28;20025;-50
2023/06/17 03:24:18;;;;;;;51.83;35.40;;;14.30;99.90;;;;;;5070746;28;20491;-49
2023/06/17 03:26:44;;;;;;;51.67;35.20;;;14.30;99.90;;;;;;5077938;28;20073;-51
2023/06/17 03:29:10;;;;;;;41.50;31.58;;;14.30;99.90;;;;;;5081087;28;20093;-52
2023/06/17 03:31:37;;;;;;;41.58;31.75;;;14.30;99.90;;;;;;5091077;28;20389;-52
2023/06/17 03:34:03;;;;;;;46.15;34.03;;;14.30;99.90;;;;;;5076861;28;20020;-51
2023/06/17 03:36:29;;;;;;;52.10;36.47;;;14.30;99.90;;;;;;5070456;28;20060;-51
2023/06/17 03:39:00;;;;;;;52.30;37.35;;;14.30;99.90;;;;;;5077741;28;20024;-51
2023/06/17 03:41:26;;;;;;;45.28;33.72;;;14.40;99.90;;;;;;5077833;28;20430;-51
2023/06/17 03:43:55;;;;;;;55.42;36.30;;;14.40;99.90;;;;;;5089999;28;20563;-51
2023/06/17 03:46:21;;;;;;;52.55;37.42;;;14.40;99.90;;;;;;5073203;28;20017;-52
2023/06/17 03:48:47;;;;;;;53.03;37.42;;;14.40;99.90;;;;;;5086154;28;20102;-51
2023/06/17 03:51:12;;;;;;;55.15;36.28;;;14.40;99.90;;;;;;5085275;28;20096;-52
2023/06/17 03:53:37;;;;;;;55.10;36.55;;;14.40;99.90;;;;;;5079103;28;20031;-52
2023/06/17 03:56:04;;;;;;;56.80;38.42;;;14.40;99.90;;;;;;5069552;28;20051;-52
2023/06/17 03:58:30;;;;;;;47.90;34.05;;;14.40;99.90;;;;;;5078034;28;20024;-52
2023/06/17 04:00:56;;;;;;;51.72;35.75;;;14.40;99.90;;;;;;5085748;28;20505;-51
2023/06/17 04:03:25;;;;;;;47.15;36.05;;;14.40;99.90;;;;;;5069814;28;20017;-52
2023/06/17 04:05:54;;;;;;;57.42;38.75;;;14.40;99.90;;;;;;5061238;28;20016;-52
2023/06/17 04:08:22;;;;;;;53.45;37.88;;;14.40;99.90;;;;;;5069425;28;20024;-52
2023/06/17 04:10:48;;;;;;;55.17;36.05;;;14.40;99.90;;;;;;5080178;28;20393;-52
2023/06/17 04:13:14;;;;;;;52.00;35.70;;;14.40;99.90;;;;;;5081531;28;20036;-52
2023/06/17 04:15:44;;;;;;;47.80;34.97;;;14.40;99.90;;;;;;5068867;28;20229;-51
2023/06/17 04:18:10;;;;;;;58.78;40.22;;;14.40;99.90;;;;;;5068035;28;20036;-52
2023/06/17 04:20:36;;;;;;;53.78;36.47;;;14.40;99.90;;;;;;5075943;28;20124;-53
2023/06/17 04:23:05;;;;;;;57.78;37.58;;;14.40;99.90;;;;;;5077738;28;20020;-50
2023/06/17 04:25:32;;;;;;;54.10;37.55;;;14.50;99.90;;;;;;5067166;28;20074;-51
2023/06/17 04:28:01;;;;;;;59.47;39.72;;;14.50;99.90;;;;;;5069036;28;20017;-50
2023/06/17 04:30:27;;;;;;;67.47;42.90;;;14.50;99.90;;;;;;5069188;28;20017;-50
2023/06/17 04:32:58;;;;;;;62.47;38.95;;;14.50;99.90;;;;;;5067723;28;20049;-51
2023/06/17 04:35:24;;;;;;;65.78;42.42;;;14.50;99.90;;;;;;5068748;28;20184;-52
2023/06/17 04:37:53;;;;;;;66.97;43.53;;;14.60;99.90;;;;;;5067612;28;20085;-51
2023/06/17 04:40:20;;;;;;;68.65;45.33;;;14.50;99.90;;;;;;5076219;28;20094;-52
2023/06/17 04:42:48;;;;;;;60.78;39.75;;;14.50;99.90;;;;;;5084935;28;20017;-53
2023/06/17 04:45:15;;;;;;;54.13;37.10;;;14.50;99.90;;;;;;5067187;28;20025;-53
2023/06/17 04:47:44;;;;;;;61.58;41.03;;;14.50;99.90;;;;;;5079294;28;20016;-52
2023/06/17 04:50:12;;;;;;;66.65;41.67;;;14.60;99.90;;;;;;5085614;28;20135;-50
2023/06/17 04:52:42;;;;;;;58.90;39.70;;;14.60;99.90;;;;;;5070558;28;20075;-53
2023/06/17 04:55:11;;;;;;;62.00;39.97;;;14.60;99.90;;;;;;5076473;28;20020;-50
2023/06/17 04:57:36;;;;;;;61.10;38.38;;;14.60;99.90;;;;;;5068469;28;20044;-51
2023/06/17 05:00:05;;;;;;;63.92;38.25;;;14.50;99.90;;;;;;5066577;28;20043;-51
2023/06/17 05:02:30;;;;;;;61.92;38.60;;;14.50;99.90;;;;;;5066541;28;20024;-51
2023/06/17 05:04:59;;;;;;;50.25;32.97;;;14.60;99.90;;;;;;5068459;28;20062;-49
2023/06/17 05:07:26;;;;;;;61.20;38.88;;;14.60;99.90;;;;;;5076090;28;20021;-50
2023/06/17 05:09:52;;;;;;;54.00;36.53;;;14.60;99.90;;;;;;5063311;28;20027;-51
2023/06/17 05:12:18;;;;;;;68.82;40.50;;;14.60;99.90;;;;;;5088688;28;20024;-52
2023/06/17 05:14:44;;;;;;;57.28;35.60;;;14.60;99.90;;;;;;5080439;28;20020;-55
2023/06/17 05:17:10;;;;;;;48.78;31.88;;;14.60;99.90;;;;;;5086325;28;20028;-51
2023/06/17 05:19:36;;;;;;;57.83;36.95;;;14.60;99.90;;;;;;5078824;28;20082;-52
2023/06/17 05:22:02;;;;;;;63.10;37.38;;;14.60;99.90;;;;;;5066981;28;20520;-53
2023/06/17 05:24:27;;;;;;;59.58;36.33;;;14.60;99.90;;;;;;5068231;28;20494;-51
2023/06/17 05:26:53;;;;;;;61.60;39.28;;;14.60;99.90;;;;;;5067371;28;20031;-52
2023/06/17 05:29:19;;;;;;;64.65;37.28;;;14.60;99.90;;;;;;5075395;28;20505;-52
2023/06/17 05:31:45;;;;;;;57.47;33.97;;;14.60;99.90;;;;;;5080237;28;20032;-52
2023/06/17 05:34:11;;;;;;;59.83;33.95;;;14.60;99.90;;;;;;5080337;28;20024;-51
2023/06/17 05:36:37;;;;;;;56.20;35.47;;;14.70;99.90;;;;;;5066464;28;20229;-51
2023/06/17 05:39:02;;;;;;;48.42;30.90;;;14.70;99.90;;;;;;5068063;28;20484;-52
2023/06/17 05:41:28;;;;;;;48.85;31.77;;;14.70;99.90;;;;;;5084412;28;20020;-51
2023/06/17 05:43:54;;;;;;;49.50;31.83;;;14.80;99.90;;;;;;5066799;28;20016;-52
2023/06/17 05:46:20;;;;;;;52.58;33.97;;;14.90;99.90;;;;;;5067953;28;20139;-51
2023/06/17 05:48:46;;;;;;;57.83;36.05;;;14.90;99.90;;;;;;5067943;28;20103;-53
2023/06/17 05:51:11;;;;;;;52.50;34.30;;;14.90;99.90;;;;;;5072660;28;20020;-55
2023/06/17 05:53:37;;;;;;;50.70;33.40;;;14.90;99.90;;;;;;5079623;28;20053;-51
2023/06/17 05:56:07;;;;;;;47.65;31.38;;;15.00;99.90;;;;;;5082624;28;20020;-51
2023/06/17 05:58:33;;;;;;;55.28;34.28;;;14.90;99.90;;;;;;5075641;28;20568;-52
2023/06/17 06:00:58;;;;;;;52.85;34.85;;;15.00;99.90;;;;;;5079441;28;20020;-51
2023/06/17 06:03:24;;;;;;;55.95;35.67;;;15.00;99.90;;;;;;5079205;28;20075;-51
2023/06/17 06:05:49;;;;;;;57.15;35.75;;;15.00;99.90;;;;;;5076476;28;20519;-52
2023/06/17 06:08:15;;;;;;;55.05;36.88;;;15.00;99.90;;;;;;5076929;28;20099;-51
2023/06/17 06:10:40;;;;;;;56.97;36.72;;;15.10;99.90;;;;;;5065364;28;20036;-52
2023/06/17 06:13:06;;;;;;;46.42;32.72;;;15.10;99.90;;;;;;5065507;28;20027;-51
2023/06/17 06:15:32;;;;;;;59.38;36.75;;;15.20;99.90;;;;;;5068875;28;20574;-53
2023/06/17 06:17:57;;;;;;;58.78;34.42;;;15.10;99.90;;;;;;5078801;28;20024;-50
2023/06/17 06:20:23;;;;;;;51.33;34.97;;;15.20;99.90;;;;;;5077535;28;20070;-51
2023/06/17 06:22:49;;;;;;;44.28;31.95;;;15.20;99.90;;;;;;5080661;28;20035;-48
2023/06/17 06:25:14;;;;;;;51.83;32.78;;;15.30;99.90;;;;;;5078011;28;20084;-49
2023/06/17 06:27:40;;;;;;;49.42;31.30;;;15.40;99.90;;;;;;5078125;28;20032;-52
2023/06/17 06:30:06;;;;;;;43.72;27.88;;;15.50;99.90;;;;;;5071484;28;20095;-51
2023/06/17 06:32:31;;;;;;;40.45;28.48;;;15.60;99.90;;;;;;5071021;28;20683;-52
2023/06/17 06:34:57;;;;;;;40.25;28.23;;;15.70;99.90;;;;;;5077626;28;20056;-50
2023/06/17 06:37:22;;;;;;;36.80;27.10;;;15.80;99.90;;;;;;5079152;28;20017;-47
2023/06/17 06:39:48;;;;;;;40.83;26.58;;;15.80;99.90;;;;;;5077985;28;20040;-48
2023/06/17 06:42:14;;;;;;;42.15;27.35;;;16.00;99.90;;;;;;5079220;28;20535;-50
2023/06/17 06:44:40;;;;;;;47.47;29.50;;;16.00;99.90;;;;;;5078439;28;20036;-47
2023/06/17 06:47:05;;;;;;;39.83;28.67;;;16.10;99.90;;;;;;5071485;28;20020;-47
2023/06/17 06:49:31;;;;;;;44.70;29.05;;;16.10;99.90;;;;;;5070933;28;20029;-47
2023/06/17 06:51:56;;;;;;;38.45;27.38;;;16.30;99.90;;;;;;5083189;28;20500;-49
2023/06/17 06:54:22;;;;;;;36.03;25.08;;;16.50;99.90;;;;;;5075471;28;20036;-48
2023/06/17 06:56:48;;;;;;;33.20;25.25;;;16.60;99.90;;;;;;5070839;28;20055;-48
2023/06/17 06:59:13;;;;;;;32.05;23.65;;;16.90;99.90;;;;;;5073779;28;20338;-47
2023/06/17 07:01:39;;;;;;;34.20;24.25;;;17.10;99.90;;;;;;5079579;28;20505;-49
2023/06/17 07:04:04;;;;;;;34.25;23.52;;;17.30;99.90;;;;;;5076371;28;20029;-48
2023/06/17 07:06:30;;;;;;;25.73;20.17;;;17.50;99.90;;;;;;5078372;28;20009;-51
2023/06/17 07:08:55;;;;;;;27.25;20.77;;;17.70;99.90;;;;;;5069083;28;20021;-49
2023/06/17 07:11:21;;;;;;;27.27;21.52;;;17.90;99.90;;;;;;5069660;28;20020;-50
2023/06/17 07:13:47;;;;;;;25.60;19.92;;;18.00;99.90;;;;;;5071332;28;20470;-49
2023/06/17 07:16:13;;;;;;;27.63;22.83;;;18.20;99.90;;;;;;5076403;28;20031;-50
2023/06/17 07:18:38;;;;;;;25.25;21.05;;;18.30;99.90;;;;;;5070288;28;20025;-49
2023/06/17 07:21:04;;;;;;;26.60;20.35;;;18.30;99.90;;;;;;5073328;28;20031;-51
2023/06/17 07:23:30;;;;;;;32.28;21.10;;;18.40;99.90;;;;;;5074388;28;20044;-48
2023/06/17 07:25:55;;;;;;;26.20;19.70;;;18.30;99.90;;;;;;5072874;28;20487;-45
2023/06/17 07:28:22;;;;;;;27.35;19.50;;;18.40;99.90;;;;;;5075578;28;20538;-50
2023/06/17 07:30:49;;;;;;;22.95;19.90;;;18.40;99.90;;;;;;5080477;28;20115;-50
2023/06/17 07:33:15;;;;;;;24.45;19.35;;;18.50;99.90;;;;;;5084517;28;20095;-48
2023/06/17 07:35:43;;;;;;;23.45;18.55;;;18.70;99.90;;;;;;5069165;28;20046;-49
2023/06/17 07:38:09;;;;;;;26.48;20.38;;;18.90;99.90;;;;;;5075114;28;20142;-51
2023/06/17 07:40:36;;;;;;;27.33;17.88;;;18.80;99.90;;;;;;5088166;28;20070;-50
2023/06/17 07:43:03;;;;;;;23.10;18.48;;;18.80;99.90;;;;;;5085214;28;20536;-50
2023/06/17 07:45:29;;;;;;;23.67;19.63;;;18.90;99.90;;;;;;5069520;28;20198;-49
2023/06/17 07:47:54;;;;;;;20.15;17.30;;;19.00;99.90;;;;;;5072547;28;20027;-50
2023/06/17 07:50:20;;;;;;;25.30;18.15;;;19.10;99.90;;;;;;5079021;28;20029;-47
2023/06/17 07:52:45;;;;;;;24.25;17.63;;;19.20;99.90;;;;;;5088106;28;20082;-48
2023/06/17 07:55:12;;;;;;;23.80;17.80;;;19.20;99.90;;;;;;5088155;28;20027;-50
2023/06/17 07:57:38;;;;;;;20.15;16.67;;;19.40;99.90;;;;;;5079382;28;20021;-50
2023/06/17 08:00:09;;;;;;;24.50;17.60;;;19.60;99.90;;;;;;5069656;28;20024;-47
2023/06/17 08:02:35;;;;;;;25.15;19.10;;;19.80;99.90;;;;;;5077987;28;20378;-49
2023/06/17 08:05:01;;;;;;;25.85;19.38;;;19.80;99.90;;;;;;5056467;28;20040;-49
2023/06/17 08:07:27;;;;;;;24.20;17.27;;;19.90;99.90;;;;;;5055319;28;20032;-49
2023/06/17 08:09:54;;;;;;;26.30;18.80;;;19.90;99.90;;;;;;5058316;28;20296;-50
2023/06/17 08:12:19;;;;;;;24.17;17.88;;;20.10;99.90;;;;;;5075709;28;20469;-48
2023/06/17 08:14:45;;;;;;;18.23;14.27;;;20.30;99.90;;;;;;5071481;28;20047;-49
2023/06/17 08:17:11;;;;;;;19.40;15.77;;;20.90;99.90;;;;;;5077383;28;20028;-50
2023/06/17 08:19:37;;;;;;;18.77;13.68;;;21.80;99.90;;;;;;5081910;28;20063;-50
2023/06/17 08:22:03;;;;;;;18.23;12.93;;;22.20;99.90;;;;;;5089851;28;20085;-50
2023/06/17 08:24:29;;;;;;;18.90;15.70;;;23.20;99.90;;;;;;5074181;28;20112;-48
2023/06/17 08:26:55;;;;;;;17.17;14.18;;;23.40;99.70;;;;;;5067599;28;20029;-50
2023/06/17 08:29:22;;;;;;;19.30;15.10;;;23.20;99.30;;;;;;5074273;28;20024;-49
2023/06/17 08:31:50;;;;;;;18.20;14.07;;;23.50;98.80;;;;;;5070437;28;20025;-47
2023/06/17 08:34:16;;;;;;;16.88;13.38;;;24.40;97.30;;;;;;5068797;28;20417;-48
2023/06/17 08:36:43;;;;;;;15.35;13.25;;;25.30;95.40;;;;;;5067617;28;20036;-48
2023/06/17 08:39:09;;;;;;;17.30;12.48;;;26.30;93.30;;;;;;5068903;28;20009;-49
2023/06/17 08:41:39;;;;;;;17.90;13.48;;;26.90;90.40;;;;;;5069171;28;20066;-48
2023/06/17 08:44:06;;;;;;;14.45;11.38;;;27.30;90.60;;;;;;5060026;28;20028;-49
2023/06/17 08:46:32;;;;;;;15.40;12.35;;;27.20;88.60;;;;;;5075950;28;20019;-49
2023/06/17 08:48:58;;;;;;;15.13;12.60;;;26.80;88.80;;;;;;5069151;28;20410;-48
2023/06/17 08:51:25;;;;;;;13.80;12.40;;;26.50;90.10;;;;;;5068079;28;20057;-50
2023/06/17 08:53:52;;;;;;;18.10;12.43;;;26.50;89.40;;;;;;5068823;28;20643;-50
2023/06/17 08:56:21;;;;;;;12.88;11.10;;;27.20;88.40;;;;;;5067997;28;20081;-50
2023/06/17 08:58:49;;;;;;;13.27;10.75;;;28.10;85.80;;;;;;5065133;28;20478;-50
2023/06/17 09:01:17;;;;;;;14.02;12.48;;;28.80;83.10;;;;;;5069053;28;20039;-49
2023/06/17 09:03:43;;;;;;;13.73;12.15;;;28.00;82.20;;;;;;5068141;28;20076;-50
2023/06/17 09:06:23;;;;;;;12.48;11.02;;;28.20;80.60;;;;;;5067690;28;20013;-50
2023/06/17 09:08:51;;;;;;;13.77;10.52;;;28.60;82.40;;;;;;5067198;28;20035;-50
2023/06/17 09:11:24;;;;;;;13.35;10.45;;;29.60;78.60;;;;;;5068548;28;20311;-50
2023/06/17 09:13:55;;;;;;;12.10;9.52;;;29.60;77.50;;;;;;5066953;28;20062;-49
2023/06/17 09:16:30;;;;;;;11.63;10.43;;;29.70;78.80;;;;;;5067622;28;20081;-50
2023/06/17 09:18:59;;;;;;;12.15;10.25;;;30.60;73.40;;;;;;5070613;28;20020;-50
2023/06/17 09:21:26;;;;;;;11.65;9.88;;;31.20;73.50;;;;;;5088402;28;20020;-52
2023/06/17 09:24:00;;;;;;;9.77;8.80;;;32.50;70.80;;;;;;5070188;28;20031;-52
2023/06/17 09:26:29;;;;;;;10.82;9.77;;;32.40;69.60;;;;;;5068056;28;20051;-51
2023/06/17 09:29:03;;;;;;;9.88;8.88;;;32.40;68.30;;;;;;5084329;28;20022;-51
2023/06/17 09:31:30;;;;;;;10.95;9.73;;;32.10;68.30;;;;;;5067222;28;20024;-51
2023/06/17 09:33:56;;;;;;;9.38;8.35;;;31.90;68.00;;;;;;5077082;28;20021;-50
2023/06/17 09:36:23;;;;;;;12.73;10.57;;;31.90;67.90;;;;;;5075691;28;20184;-54
2023/06/17 09:38:52;;;;;;;12.60;11.00;;;30.80;68.40;;;;;;5084825;28;20152;-50
2023/06/17 09:41:20;;;;;;;11.77;10.57;;;30.10;68.90;;;;;;5074977;28;20024;-50
2023/06/17 09:43:51;;;;;;;11.65;8.82;;;30.60;67.40;;;;;;5085356;28;20521;-51
2023/06/17 09:46:29;;;;;;;11.65;9.35;;;30.90;69.10;;;;;;5074657;28;20017;-50
2023/06/17 09:48:57;;;;;;;12.43;8.82;;;31.60;67.70;;;;;;5067765;28;20056;-51
2023/06/17 09:51:23;;;;;;;12.40;9.63;;;31.80;67.70;;;;;;5081535;28;20024;-51
2023/06/17 09:53:54;;;;;;;14.57;10.73;;;32.00;66.20;;;;;;5078166;28;20104;-51
2023/06/17 09:56:20;;;;;;;9.98;8.98;;;31.90;64.80;;;;;;5071596;28;20020;-51
2023/06/17 09:58:47;;;;;;;11.73;7.82;;;32.30;65.00;;;;;;5070103;28;20170;-51
2023/06/17 10:01:13;;;;;;;8.27;7.50;;;33.00;66.00;;;;;;5082322;28;20025;-52
2023/06/17 10:03:39;;;;;;;9.73;8.35;;;33.50;62.70;;;;;;5069411;28;20116;-51
2023/06/17 10:06:10;;;;;;;10.45;8.30;;;33.70;61.20;;;;;;5071453;28;20109;-51
2023/06/17 10:08:48;;;;;;;9.30;7.93;;;33.90;61.20;;;;;;5071816;28;20381;-51
2023/06/17 10:11:18;;;;;;;8.90;8.00;;;34.00;61.10;;;;;;5072248;28;20363;-51
2023/06/17 10:13:48;;;;;;;9.85;8.85;;;33.50;62.00;;;;;;5072023;28;20485;-51
2023/06/17 10:16:17;;;;;;;9.73;8.02;;;33.70;61.40;;;;;;5078567;28;20062;-52
2023/06/17 10:18:47;;;;;;;11.65;8.52;;;33.70;60.80;;;;;;5071752;28;20032;-51
2023/06/17 10:21:14;;;;;;;9.98;8.40;;;33.50;61.30;;;;;;5084229;28;20047;-50
2023/06/17 10:23:42;;;;;;;11.20;8.38;;;33.00;60.20;;;;;;5082470;28;20024;-50
2023/06/17 10:26:11;;;;;;;12.88;8.60;;;33.30;61.00;;;;;;5091632;28;20028;-51
2023/06/17 10:28:54;;;;;;;13.23;7.80;;;33.30;61.80;;;;;;5091575;28;20081;-51
2023/06/17 10:31:26;;;;;;;8.70;7.20;;;33.40;61.10;;;;;;5065192;28;20424;-51
2023/06/17 10:33:53;;;;;;;8.30;7.32;;;34.00;59.10;;;;;;5069942;28;20289;-52
2023/06/17 10:36:23;;;;;;;9.15;7.22;;;34.70;59.50;;;;;;5069619;28;20020;-51
2023/06/17 10:38:58;;;;;;;9.32;8.32;;;35.10;57.80;;;;;;5071143;28;20020;-50
2023/06/17 10:41:42;;;;;;;10.07;8.38;;;33.90;57.60;;;;;;5071331;28;20042;-51
2023/06/17 10:44:34;;;;;;;9.63;7.85;;;33.70;59.40;;;;;;5071032;28;20504;-51
2023/06/17 10:47:03;;;;;;;8.75;7.85;;;33.80;58.90;;;;;;5085774;28;20536;-51
2023/06/17 10:49:45;;;;;;;10.45;8.10;;;33.60;58.40;;;;;;5071450;28;20033;-51
2023/06/17 10:52:13;;;;;;;9.75;8.20;;;33.80;59.10;;;;;;5082004;28;20137;-53
2023/06/17 10:54:59;;;;;;;10.45;7.28;;;34.30;58.40;;;;;;5075262;28;20044;-52
2023/06/17 10:57:46;;;;;;;9.35;7.28;;;34.50;56.40;;;;;;5070231;28;20051;-51
2023/06/17 11:00:14;;;;;;;6.43;5.82;;;34.90;56.10;;;;;;5081276;28;20021;-51
2023/06/17 11:02:40;;;;;;;10.77;6.88;;;34.90;56.30;;;;;;5069550;28;20098;-53
2023/06/17 11:05:07;;;;;;;8.20;7.35;;;35.40;55.10;;;;;;5070548;28;20197;-51
2023/06/17 11:07:34;;;;;;;13.32;8.20;;;35.10;56.10;;;;;;5069049;28;20020;-49
2023/06/17 11:09:59;;;;;;;7.78;6.97;;;34.80;56.80;;;;;;5080025;28;20305;-52
2023/06/17 11:12:26;;;;;;;10.05;7.15;;;34.80;55.70;;;;;;5076618;28;20237;-51
2023/06/17 11:14:51;;;;;;;9.05;8.15;;;35.20;56.90;;;;;;5076551;28;20027;-51
2023/06/17 11:17:17;;;;;;;8.55;7.30;;;35.20;55.70;;;;;;5069141;28;20410;-51
2023/06/17 11:19:43;;;;;;;10.60;9.50;;;34.00;57.00;;;;;;5070646;28;20506;-48
2023/06/17 11:22:08;;;;;;;9.93;8.93;;;32.40;58.80;;;;;;5090477;28;20046;-49
2023/06/17 11:24:35;;;;;;;10.50;9.48;;;31.00;61.30;;;;;;5084178;28;20024;-49
2023/06/17 11:27:01;;;;;;;10.52;9.30;;;30.00;63.50;;;;;;5069620;28;20032;-50
2023/06/17 11:29:28;;;;;;;10.15;9.20;;;29.60;65.10;;;;;;5069868;28;20482;-50
2023/06/17 11:31:58;;;;;;;10.82;8.18;;;30.80;64.00;;;;;;5076072;28;20598;-50
2023/06/17 11:34:23;;;;;;;9.05;7.47;;;31.60;63.80;;;;;;5077062;28;20012;-50
2023/06/17 11:36:52;;;;;;;9.13;7.05;;;32.30;60.70;;;;;;5077014;28;20048;-49
2023/06/17 11:39:21;;;;;;;8.02;7.32;;;33.10;59.40;;;;;;5067227;28;20098;-50
2023/06/17 11:41:48;;;;;;;8.20;7.43;;;33.40;58.40;;;;;;5063403;28;20024;-50
2023/06/17 11:44:13;;;;;;;8.85;7.95;;;32.40;60.00;;;;;;5064567;28;20020;-48
2023/06/17 11:46:42;;;;;;;8.80;7.90;;;32.00;61.30;;;;;;5062729;28;20025;-51
2023/06/17 11:49:08;;;;;;;8.88;8.05;;;32.50;60.30;;;;;;5062222;28;20442;-51
2023/06/17 11:51:35;;;;;;;9.30;7.20;;;32.40;59.70;;;;;;5077749;28;20025;-52
2023/06/17 11:54:05;;;;;;;8.50;7.60;;;33.50;59.20;;;;;;5073408;28;20016;-52
2023/06/17 11:56:32;;;;;;;;;;;33.50;57.70;;;;;;5073440;28;20438;-51
2023/06/17 11:58:57;;;;;;;8.43;7.50;;;32.00;58.80;;;;;;5069337;28;20254;-49
2023/06/17 12:01:25;;;;;;;8.63;7.80;;;31.70;61.00;;;;;;5072398;28;20070;-49
2023/06/17 12:03:51;;;;;;;8.82;8.02;;;31.70;60.90;;;;;;5071253;28;20408;-48
2023/06/17 12:06:21;;;;;;;9.80;8.30;;;32.00;59.80;;;;;;5068955;28;20028;-49
2023/06/17 12:09:00;;;;;;;;;;;31.70;59.60;;;;;;5069447;28;20229;-46
2023/06/17 12:11:31;;;;;;;7.40;6.70;;;31.50;59.90;;;;;;5063444;28;20384;-47
2023/06/17 12:13:57;;;;;;;10.05;9.07;;;31.60;60.00;;;;;;5077397;28;20327;-48
2023/06/17 12:16:35;;;;;;;10.40;9.30;;;31.40;59.20;;;;;;5070540;28;20048;-49
2023/06/17 12:19:04;;;;;;;10.07;8.52;;;30.70;61.00;;;;;;5069047;28;20489;-50
2023/06/17 12:21:30;;;;;;;9.95;8.55;;;30.00;62.80;;;;;;5082359;28;20499;-50
2023/06/17 12:23:56;;;;;;;10.32;9.30;;;29.20;64.90;;;;;;5080253;28;20024;-47
2023/06/17 12:26:23;;;;;;;9.55;8.65;;;28.70;65.00;;;;;;5068680;28;20036;-49
2023/06/17 12:28:49;;;;;;;10.55;8.95;;;28.70;66.90;;;;;;5068881;28;20031;-47
2023/06/17 12:31:17;;;;;;;11.50;9.07;;;29.20;66.00;;;;;;5068064;28;20024;-50